Lind, Washington
Current Conditions -  °F | °C
As of 1:52 AM on Saturday 29 Nov 2014 (Local Time) from KMWH Reporting Station
Clear Clear  
Wind Chill: 31°   Ceiling: Unl
Heat Index: 31°   Visibility: 10mi
Dew Point: 25°   Wind: 3mph
Humidity: 79%   Direction: 30°NNE
Pressure: 29.44"   Gusts: NA
Location:  46.97°N, 118.62°W
Report Text: KMWH 290952Z AUTO 03003KT 10SM CLR M01/M04 A2944 RMK AO2 SLP974 T10061039
Loading
Personal Weather Stations






























Interactive Weather Map New forecast layout! Learn more

10-Day Weather Forecast

Advertisements
Track Severe Weather on mobile